sensor_id;sensor_type;location;lat;lon;timestamp;P1;durP1;ratioP1;P2;durP2;ratioP2
4424;SDS011;2225;53.568;13.266;2023-04-08T00:00:46;33.00;;;16.43;;
4424;SDS011;2225;53.568;13.266;2023-04-08T00:03:14;30.83;;;16.30;;
4424;SDS011;2225;53.568;13.266;2023-04-08T00:05:41;32.37;;;16.90;;
4424;SDS011;2225;53.568;13.266;2023-04-08T00:08:08;34.07;;;17.83;;
4424;SDS011;2225;53.568;13.266;2023-04-08T00:10:35;37.10;;;18.30;;
4424;SDS011;2225;53.568;13.266;2023-04-08T00:13:02;34.40;;;15.37;;
4424;SDS011;2225;53.568;13.266;2023-04-08T00:15:29;41.47;;;16.10;;
4424;SDS011;2225;53.568;13.266;2023-04-08T00:17:56;30.03;;;16.23;;
4424;SDS011;2225;53.568;13.266;2023-04-08T00:20:23;33.53;;;16.20;;
4424;SDS011;2225;53.568;13.266;2023-04-08T00:22:50;30.07;;;14.37;;
4424;SDS011;2225;53.568;13.266;2023-04-08T00:25:17;31.20;;;16.77;;
4424;SDS011;2225;53.568;13.266;2023-04-08T00:27:44;26.67;;;14.57;;
4424;SDS011;2225;53.568;13.266;2023-04-08T00:30:11;31.67;;;15.70;;
4424;SDS011;2225;53.568;13.266;2023-04-08T00:32:38;24.63;;;14.03;;
4424;SDS011;2225;53.568;13.266;2023-04-08T00:35:05;22.83;;;11.80;;
4424;SDS011;2225;53.568;13.266;2023-04-08T00:37:32;27.70;;;13.40;;
4424;SDS011;2225;53.568;13.266;2023-04-08T00:40:00;25.10;;;13.30;;
4424;SDS011;2225;53.568;13.266;2023-04-08T00:42:27;27.87;;;14.30;;
4424;SDS011;2225;53.568;13.266;2023-04-08T00:44:56;31.03;;;14.50;;
4424;SDS011;2225;53.568;13.266;2023-04-08T00:47:23;21.70;;;12.20;;
4424;SDS011;2225;53.568;13.266;2023-04-08T00:49:51;35.73;;;15.13;;
4424;SDS011;2225;53.568;13.266;2023-04-08T00:52:18;35.20;;;14.40;;
4424;SDS011;2225;53.568;13.266;2023-04-08T00:54:45;33.37;;;15.90;;
4424;SDS011;2225;53.568;13.266;2023-04-08T00:57:12;31.03;;;14.57;;
4424;SDS011;2225;53.568;13.266;2023-04-08T00:59:39;46.33;;;16.37;;
4424;SDS011;2225;53.568;13.266;2023-04-08T01:02:17;31.30;;;15.20;;
4424;SDS011;2225;53.568;13.266;2023-04-08T01:04:59;30.60;;;14.70;;
4424;SDS011;2225;53.568;13.266;2023-04-08T01:07:36;33.03;;;15.00;;
4424;SDS011;2225;53.568;13.266;2023-04-08T01:10:11;29.17;;;13.53;;
4424;SDS011;2225;53.568;13.266;2023-04-08T01:12:54;33.33;;;15.47;;
4424;SDS011;2225;53.568;13.266;2023-04-08T01:15:24;33.23;;;14.40;;
4424;SDS011;2225;53.568;13.266;2023-04-08T01:17:54;45.23;;;14.37;;
4424;SDS011;2225;53.568;13.266;2023-04-08T01:20:23;37.33;;;15.00;;
4424;SDS011;2225;53.568;13.266;2023-04-08T01:26:21;27.67;;;14.27;;
4424;SDS011;2225;53.568;13.266;2023-04-08T01:28:55;30.40;;;15.50;;
4424;SDS011;2225;53.568;13.266;2023-04-08T01:31:26;28.03;;;14.67;;
4424;SDS011;2225;53.568;13.266;2023-04-08T01:33:56;30.00;;;14.63;;
4424;SDS011;2225;53.568;13.266;2023-04-08T01:36:25;32.13;;;15.00;;
4424;SDS011;2225;53.568;13.266;2023-04-08T01:38:54;28.37;;;15.33;;
4424;SDS011;2225;53.568;13.266;2023-04-08T01:41:22;32.40;;;13.93;;
4424;SDS011;2225;53.568;13.266;2023-04-08T01:43:49;32.57;;;14.50;;
4424;SDS011;2225;53.568;13.266;2023-04-08T01:46:18;35.37;;;15.00;;
4424;SDS011;2225;53.568;13.266;2023-04-08T01:48:46;43.67;;;15.63;;
4424;SDS011;2225;53.568;13.266;2023-04-08T01:51:15;32.40;;;15.20;;
4424;SDS011;2225;53.568;13.266;2023-04-08T01:53:42;34.83;;;15.10;;
4424;SDS011;2225;53.568;13.266;2023-04-08T01:56:11;44.43;;;17.00;;
4424;SDS011;2225;53.568;13.266;2023-04-08T01:58:41;39.20;;;17.03;;
4424;SDS011;2225;53.568;13.266;2023-04-08T02:01:19;37.67;;;14.97;;
4424;SDS011;2225;53.568;13.266;2023-04-08T02:03:48;32.23;;;15.17;;
4424;SDS011;2225;53.568;13.266;2023-04-08T02:06:22;48.83;;;16.00;;
4424;SDS011;2225;53.568;13.266;2023-04-08T02:08:50;25.80;;;15.00;;
4424;SDS011;2225;53.568;13.266;2023-04-08T02:11:19;30.00;;;15.33;;
4424;SDS011;2225;53.568;13.266;2023-04-08T02:13:47;30.10;;;16.10;;
4424;SDS011;2225;53.568;13.266;2023-04-08T02:16:18;29.63;;;15.27;;
4424;SDS011;2225;53.568;13.266;2023-04-08T02:19:01;40.57;;;15.10;;
4424;SDS011;2225;53.568;13.266;2023-04-08T02:21:38;28.63;;;15.47;;
4424;SDS011;2225;53.568;13.266;2023-04-08T02:24:12;34.07;;;17.33;;
4424;SDS011;2225;53.568;13.266;2023-04-08T02:26:41;38.40;;;16.20;;
4424;SDS011;2225;53.568;13.266;2023-04-08T02:29:11;26.87;;;15.10;;
4424;SDS011;2225;53.568;13.266;2023-04-08T02:31:41;32.30;;;15.73;;
4424;SDS011;2225;53.568;13.266;2023-04-08T02:34:09;32.30;;;16.13;;
4424;SDS011;2225;53.568;13.266;2023-04-08T02:36:37;40.80;;;16.57;;
4424;SDS011;2225;53.568;13.266;2023-04-08T02:39:06;30.73;;;15.70;;
4424;SDS011;2225;53.568;13.266;2023-04-08T02:41:33;63.17;;;16.60;;
4424;SDS011;2225;53.568;13.266;2023-04-08T02:44:00;30.73;;;16.03;;
4424;SDS011;2225;53.568;13.266;2023-04-08T02:46:28;40.37;;;17.17;;
4424;SDS011;2225;53.568;13.266;2023-04-08T02:48:55;41.90;;;16.37;;
4424;SDS011;2225;53.568;13.266;2023-04-08T02:51:22;43.43;;;14.83;;
4424;SDS011;2225;53.568;13.266;2023-04-08T02:53:49;42.00;;;16.87;;
4424;SDS011;2225;53.568;13.266;2023-04-08T02:56:16;37.73;;;16.23;;
4424;SDS011;2225;53.568;13.266;2023-04-08T02:58:43;32.00;;;14.13;;
4424;SDS011;2225;53.568;13.266;2023-04-08T03:01:10;34.50;;;15.30;;
4424;SDS011;2225;53.568;13.266;2023-04-08T03:03:37;42.80;;;17.80;;
4424;SDS011;2225;53.568;13.266;2023-04-08T03:06:04;37.53;;;15.73;;
4424;SDS011;2225;53.568;13.266;2023-04-08T03:08:31;35.20;;;17.00;;
4424;SDS011;2225;53.568;13.266;2023-04-08T03:10:58;41.47;;;18.10;;
4424;SDS011;2225;53.568;13.266;2023-04-08T03:13:25;42.57;;;17.47;;
4424;SDS011;2225;53.568;13.266;2023-04-08T03:15:54;43.73;;;17.93;;
4424;SDS011;2225;53.568;13.266;2023-04-08T03:18:21;28.43;;;16.03;;
4424;SDS011;2225;53.568;13.266;2023-04-08T03:20:49;32.30;;;16.30;;
4424;SDS011;2225;53.568;13.266;2023-04-08T03:23:16;33.10;;;16.60;;
4424;SDS011;2225;53.568;13.266;2023-04-08T03:25:43;42.00;;;17.07;;
4424;SDS011;2225;53.568;13.266;2023-04-08T03:28:10;32.83;;;16.10;;
4424;SDS011;2225;53.568;13.266;2023-04-08T03:30:37;57.20;;;18.33;;
4424;SDS011;2225;53.568;13.266;2023-04-08T03:33:04;31.97;;;16.33;;
4424;SDS011;2225;53.568;13.266;2023-04-08T03:35:33;38.10;;;16.57;;
4424;SDS011;2225;53.568;13.266;2023-04-08T03:38:00;30.33;;;16.67;;
4424;SDS011;2225;53.568;13.266;2023-04-08T03:40:27;31.43;;;16.93;;
4424;SDS011;2225;53.568;13.266;2023-04-08T03:42:54;36.57;;;18.50;;
4424;SDS011;2225;53.568;13.266;2023-04-08T03:45:21;31.77;;;16.53;;
4424;SDS011;2225;53.568;13.266;2023-04-08T03:47:48;34.47;;;17.77;;
4424;SDS011;2225;53.568;13.266;2023-04-08T03:50:15;44.70;;;17.20;;
4424;SDS011;2225;53.568;13.266;2023-04-08T03:52:42;38.53;;;18.50;;
4424;SDS011;2225;53.568;13.266;2023-04-08T03:55:09;45.30;;;18.13;;
4424;SDS011;2225;53.568;13.266;2023-04-08T03:57:36;38.67;;;18.40;;
4424;SDS011;2225;53.568;13.266;2023-04-08T04:00:03;49.53;;;19.40;;
4424;SDS011;2225;53.568;13.266;2023-04-08T04:02:37;32.40;;;16.70;;
4424;SDS011;2225;53.568;13.266;2023-04-08T04:05:04;40.07;;;19.10;;
4424;SDS011;2225;53.568;13.266;2023-04-08T04:07:31;45.00;;;18.03;;
4424;SDS011;2225;53.568;13.266;2023-04-08T04:09:58;35.73;;;18.00;;
4424;SDS011;2225;53.568;13.266;2023-04-08T04:12:25;39.83;;;17.87;;
4424;SDS011;2225;53.568;13.266;2023-04-08T04:14:52;33.43;;;18.10;;
4424;SDS011;2225;53.568;13.266;2023-04-08T04:17:19;46.20;;;19.10;;
4424;SDS011;2225;53.568;13.266;2023-04-08T04:19:46;41.53;;;16.93;;
4424;SDS011;2225;53.568;13.266;2023-04-08T04:22:13;52.00;;;18.90;;
4424;SDS011;2225;53.568;13.266;2023-04-08T04:24:40;38.40;;;19.43;;
4424;SDS011;2225;53.568;13.266;2023-04-08T04:27:07;43.83;;;20.23;;
4424;SDS011;2225;53.568;13.266;2023-04-08T04:29:33;35.97;;;18.83;;
4424;SDS011;2225;53.568;13.266;2023-04-08T04:32:01;48.57;;;20.50;;
4424;SDS011;2225;53.568;13.266;2023-04-08T04:34:27;42.63;;;18.50;;
4424;SDS011;2225;53.568;13.266;2023-04-08T04:36:54;43.77;;;20.37;;
4424;SDS011;2225;53.568;13.266;2023-04-08T04:39:21;37.13;;;19.40;;
4424;SDS011;2225;53.568;13.266;2023-04-08T04:41:48;65.30;;;19.83;;
4424;SDS011;2225;53.568;13.266;2023-04-08T04:44:15;39.70;;;18.70;;
4424;SDS011;2225;53.568;13.266;2023-04-08T04:46:42;39.53;;;19.20;;
4424;SDS011;2225;53.568;13.266;2023-04-08T04:49:09;44.70;;;17.23;;
4424;SDS011;2225;53.568;13.266;2023-04-08T04:51:36;43.10;;;21.00;;
4424;SDS011;2225;53.568;13.266;2023-04-08T04:54:03;40.03;;;18.27;;
4424;SDS011;2225;53.568;13.266;2023-04-08T04:56:30;43.57;;;18.77;;
4424;SDS011;2225;53.568;13.266;2023-04-08T04:58:57;43.47;;;19.20;;
4424;SDS011;2225;53.568;13.266;2023-04-08T05:01:24;37.80;;;17.60;;
4424;SDS011;2225;53.568;13.266;2023-04-08T05:03:51;38.90;;;18.67;;
4424;SDS011;2225;53.568;13.266;2023-04-08T05:06:18;46.67;;;18.77;;
4424;SDS011;2225;53.568;13.266;2023-04-08T05:08:45;46.83;;;20.43;;
4424;SDS011;2225;53.568;13.266;2023-04-08T05:11:12;53.50;;;19.77;;
4424;SDS011;2225;53.568;13.266;2023-04-08T05:13:39;34.37;;;17.33;;
4424;SDS011;2225;53.568;13.266;2023-04-08T05:16:06;47.23;;;19.43;;
4424;SDS011;2225;53.568;13.266;2023-04-08T05:18:33;49.43;;;19.87;;
4424;SDS011;2225;53.568;13.266;2023-04-08T05:21:00;43.00;;;18.70;;
4424;SDS011;2225;53.568;13.266;2023-04-08T05:23:28;45.27;;;21.60;;
4424;SDS011;2225;53.568;13.266;2023-04-08T05:25:55;45.70;;;19.97;;
4424;SDS011;2225;53.568;13.266;2023-04-08T05:28:22;41.17;;;20.23;;
4424;SDS011;2225;53.568;13.266;2023-04-08T05:30:49;53.13;;;19.60;;
4424;SDS011;2225;53.568;13.266;2023-04-08T05:33:16;45.67;;;20.30;;
4424;SDS011;2225;53.568;13.266;2023-04-08T05:35:44;47.50;;;19.43;;
4424;SDS011;2225;53.568;13.266;2023-04-08T05:38:11;38.77;;;19.17;;
4424;SDS011;2225;53.568;13.266;2023-04-08T05:40:38;38.70;;;18.63;;
4424;SDS011;2225;53.568;13.266;2023-04-08T05:43:05;47.23;;;19.63;;
4424;SDS011;2225;53.568;13.266;2023-04-08T05:45:32;44.30;;;20.70;;
4424;SDS011;2225;53.568;13.266;2023-04-08T05:47:59;32.27;;;16.57;;
4424;SDS011;2225;53.568;13.266;2023-04-08T05:50:26;36.17;;;17.30;;
4424;SDS011;2225;53.568;13.266;2023-04-08T05:52:53;40.10;;;19.37;;
4424;SDS011;2225;53.568;13.266;2023-04-08T05:55:20;36.93;;;18.73;;
4424;SDS011;2225;53.568;13.266;2023-04-08T05:57:47;35.60;;;18.67;;
4424;SDS011;2225;53.568;13.266;2023-04-08T06:00:14;36.40;;;18.43;;
4424;SDS011;2225;53.568;13.266;2023-04-08T06:02:42;39.07;;;18.57;;
4424;SDS011;2225;53.568;13.266;2023-04-08T06:05:09;47.40;;;20.40;;
4424;SDS011;2225;53.568;13.266;2023-04-08T06:07:36;41.17;;;19.63;;
4424;SDS011;2225;53.568;13.266;2023-04-08T06:10:03;35.73;;;18.70;;
4424;SDS011;2225;53.568;13.266;2023-04-08T06:12:34;40.13;;;19.13;;
4424;SDS011;2225;53.568;13.266;2023-04-08T06:15:02;32.90;;;17.70;;
4424;SDS011;2225;53.568;13.266;2023-04-08T06:17:31;37.50;;;18.43;;
4424;SDS011;2225;53.568;13.266;2023-04-08T06:19:59;59.70;;;21.37;;
4424;SDS011;2225;53.568;13.266;2023-04-08T06:22:27;52.70;;;19.80;;
4424;SDS011;2225;53.568;13.266;2023-04-08T06:24:54;41.13;;;18.30;;
4424;SDS011;2225;53.568;13.266;2023-04-08T06:27:21;50.83;;;19.03;;
4424;SDS011;2225;53.568;13.266;2023-04-08T06:29:48;42.63;;;19.17;;
4424;SDS011;2225;53.568;13.266;2023-04-08T06:32:16;38.17;;;19.87;;
4424;SDS011;2225;53.568;13.266;2023-04-08T06:34:43;44.77;;;19.30;;
4424;SDS011;2225;53.568;13.266;2023-04-08T06:37:11;53.70;;;18.23;;
4424;SDS011;2225;53.568;13.266;2023-04-08T06:39:38;39.00;;;19.40;;
4424;SDS011;2225;53.568;13.266;2023-04-08T06:42:05;50.83;;;18.93;;
4424;SDS011;2225;53.568;13.266;2023-04-08T06:44:51;30.77;;;17.70;;
4424;SDS011;2225;53.568;13.266;2023-04-08T06:47:18;35.40;;;18.57;;
4424;SDS011;2225;53.568;13.266;2023-04-08T06:49:45;54.50;;;17.57;;
4424;SDS011;2225;53.568;13.266;2023-04-08T06:52:12;64.60;;;19.00;;
4424;SDS011;2225;53.568;13.266;2023-04-08T06:54:40;60.63;;;21.33;;
4424;SDS011;2225;53.568;13.266;2023-04-08T06:57:07;68.97;;;21.03;;
4424;SDS011;2225;53.568;13.266;2023-04-08T06:59:34;43.50;;;17.87;;
4424;SDS011;2225;53.568;13.266;2023-04-08T07:02:01;78.07;;;19.00;;
4424;SDS011;2225;53.568;13.266;2023-04-08T07:04:29;48.53;;;20.20;;
4424;SDS011;2225;53.568;13.266;2023-04-08T07:06:55;36.00;;;19.17;;
4424;SDS011;2225;53.568;13.266;2023-04-08T07:09:23;40.23;;;19.03;;
4424;SDS011;2225;53.568;13.266;2023-04-08T07:11:49;35.13;;;18.17;;
4424;SDS011;2225;53.568;13.266;2023-04-08T07:14:16;39.43;;;17.93;;
4424;SDS011;2225;53.568;13.266;2023-04-08T07:16:44;39.77;;;19.07;;
4424;SDS011;2225;53.568;13.266;2023-04-08T07:19:11;41.87;;;19.40;;
4424;SDS011;2225;53.568;13.266;2023-04-08T07:21:38;39.10;;;19.10;;
4424;SDS011;2225;53.568;13.266;2023-04-08T07:24:05;42.17;;;19.30;;
4424;SDS011;2225;53.568;13.266;2023-04-08T07:26:32;41.40;;;19.40;;
4424;SDS011;2225;53.568;13.266;2023-04-08T07:28:59;43.13;;;20.33;;
4424;SDS011;2225;53.568;13.266;2023-04-08T07:31:26;43.23;;;19.13;;
4424;SDS011;2225;53.568;13.266;2023-04-08T07:33:53;37.63;;;19.77;;
4424;SDS011;2225;53.568;13.266;2023-04-08T07:36:20;49.83;;;18.50;;
4424;SDS011;2225;53.568;13.266;2023-04-08T07:38:47;34.67;;;20.10;;
4424;SDS011;2225;53.568;13.266;2023-04-08T07:41:14;34.10;;;17.73;;
4424;SDS011;2225;53.568;13.266;2023-04-08T07:43:41;37.23;;;19.13;;
4424;SDS011;2225;53.568;13.266;2023-04-08T07:46:08;46.33;;;19.73;;
4424;SDS011;2225;53.568;13.266;2023-04-08T07:48:35;42.57;;;18.50;;
4424;SDS011;2225;53.568;13.266;2023-04-08T07:51:06;44.60;;;18.97;;
4424;SDS011;2225;53.568;13.266;2023-04-08T07:53:37;35.90;;;17.60;;
4424;SDS011;2225;53.568;13.266;2023-04-08T07:56:12;41.70;;;19.30;;
4424;SDS011;2225;53.568;13.266;2023-04-08T07:58:41;41.70;;;19.43;;
4424;SDS011;2225;53.568;13.266;2023-04-08T08:01:15;44.17;;;19.17;;
4424;SDS011;2225;53.568;13.266;2023-04-08T08:03:47;40.33;;;19.93;;
4424;SDS011;2225;53.568;13.266;2023-04-08T08:06:16;43.60;;;19.20;;
4424;SDS011;2225;53.568;13.266;2023-04-08T08:08:44;39.40;;;18.80;;
4424;SDS011;2225;53.568;13.266;2023-04-08T08:11:11;45.13;;;19.37;;
4424;SDS011;2225;53.568;13.266;2023-04-08T08:13:38;41.60;;;20.17;;
4424;SDS011;2225;53.568;13.266;2023-04-08T08:16:05;34.43;;;18.33;;
4424;SDS011;2225;53.568;13.266;2023-04-08T08:18:34;40.37;;;18.17;;
4424;SDS011;2225;53.568;13.266;2023-04-08T08:21:02;38.37;;;19.07;;
4424;SDS011;2225;53.568;13.266;2023-04-08T08:23:29;50.57;;;19.77;;
4424;SDS011;2225;53.568;13.266;2023-04-08T08:25:59;40.10;;;19.10;;
4424;SDS011;2225;53.568;13.266;2023-04-08T08:28:28;43.33;;;19.03;;
4424;SDS011;2225;53.568;13.266;2023-04-08T08:30:55;37.37;;;18.33;;
4424;SDS011;2225;53.568;13.266;2023-04-08T08:33:23;48.87;;;21.20;;
4424;SDS011;2225;53.568;13.266;2023-04-08T08:35:50;38.07;;;19.17;;
4424;SDS011;2225;53.568;13.266;2023-04-08T08:38:17;32.90;;;17.40;;
4424;SDS011;2225;53.568;13.266;2023-04-08T08:40:44;42.27;;;19.80;;
4424;SDS011;2225;53.568;13.266;2023-04-08T08:43:11;44.73;;;19.83;;
4424;SDS011;2225;53.568;13.266;2023-04-08T08:45:40;40.70;;;18.93;;
4424;SDS011;2225;53.568;13.266;2023-04-08T08:48:07;44.43;;;21.27;;
4424;SDS011;2225;53.568;13.266;2023-04-08T08:50:34;53.43;;;21.43;;
4424;SDS011;2225;53.568;13.266;2023-04-08T08:53:01;44.47;;;19.87;;
4424;SDS011;2225;53.568;13.266;2023-04-08T08:55:29;44.47;;;20.30;;
4424;SDS011;2225;53.568;13.266;2023-04-08T08:58:18;56.33;;;21.10;;
4424;SDS011;2225;53.568;13.266;2023-04-08T09:00:45;49.60;;;19.93;;
4424;SDS011;2225;53.568;13.266;2023-04-08T09:03:14;44.80;;;20.23;;
4424;SDS011;2225;53.568;13.266;2023-04-08T09:05:51;42.53;;;19.57;;
4424;SDS011;2225;53.568;13.266;2023-04-08T09:10:53;36.53;;;19.13;;
4424;SDS011;2225;53.568;13.266;2023-04-08T09:13:22;54.90;;;21.47;;
4424;SDS011;2225;53.568;13.266;2023-04-08T09:15:59;42.80;;;21.67;;
4424;SDS011;2225;53.568;13.266;2023-04-08T09:18:29;39.70;;;19.50;;
4424;SDS011;2225;53.568;13.266;2023-04-08T09:21:01;49.07;;;20.50;;
4424;SDS011;2225;53.568;13.266;2023-04-08T09:23:45;48.23;;;24.27;;
4424;SDS011;2225;53.568;13.266;2023-04-08T09:26:16;44.03;;;20.30;;
4424;SDS011;2225;53.568;13.266;2023-04-08T09:31:54;60.53;;;20.30;;
4424;SDS011;2225;53.568;13.266;2023-04-08T09:34:26;34.37;;;17.57;;
4424;SDS011;2225;53.568;13.266;2023-04-08T09:36:54;43.50;;;17.70;;
4424;SDS011;2225;53.568;13.266;2023-04-08T09:39:22;43.73;;;19.87;;
4424;SDS011;2225;53.568;13.266;2023-04-08T09:41:49;39.07;;;18.50;;
4424;SDS011;2225;53.568;13.266;2023-04-08T09:44:19;36.87;;;17.27;;
4424;SDS011;2225;53.568;13.266;2023-04-08T09:54:51;33.03;;;16.00;;
4424;SDS011;2225;53.568;13.266;2023-04-08T09:57:39;44.57;;;19.07;;
4424;SDS011;2225;53.568;13.266;2023-04-08T10:00:16;33.63;;;17.30;;
4424;SDS011;2225;53.568;13.266;2023-04-08T10:02:54;35.00;;;17.13;;
4424;SDS011;2225;53.568;13.266;2023-04-08T10:05:45;34.90;;;17.17;;
4424;SDS011;2225;53.568;13.266;2023-04-08T10:08:13;34.33;;;17.60;;
4424;SDS011;2225;53.568;13.266;2023-04-08T10:10:41;36.53;;;17.27;;
4424;SDS011;2225;53.568;13.266;2023-04-08T10:13:09;35.50;;;15.93;;
4424;SDS011;2225;53.568;13.266;2023-04-08T10:15:36;29.13;;;15.33;;
4424;SDS011;2225;53.568;13.266;2023-04-08T10:18:28;35.97;;;17.07;;
4424;SDS011;2225;53.568;13.266;2023-04-08T10:20:56;29.27;;;15.10;;
4424;SDS011;2225;53.568;13.266;2023-04-08T10:26:32;40.13;;;17.90;;
4424;SDS011;2225;53.568;13.266;2023-04-08T10:29:28;31.90;;;17.30;;
4424;SDS011;2225;53.568;13.266;2023-04-08T10:31:56;35.10;;;16.30;;
4424;SDS011;2225;53.568;13.266;2023-04-08T10:34:23;37.50;;;17.30;;
4424;SDS011;2225;53.568;13.266;2023-04-08T10:36:53;35.27;;;16.87;;
4424;SDS011;2225;53.568;13.266;2023-04-08T10:39:23;39.40;;;16.30;;
4424;SDS011;2225;53.568;13.266;2023-04-08T10:41:51;43.87;;;16.03;;
4424;SDS011;2225;53.568;13.266;2023-04-08T10:44:22;43.70;;;18.33;;
4424;SDS011;2225;53.568;13.266;2023-04-08T10:46:51;24.40;;;14.20;;
4424;SDS011;2225;53.568;13.266;2023-04-08T10:49:19;33.93;;;15.90;;
4424;SDS011;2225;53.568;13.266;2023-04-08T10:51:47;23.77;;;13.30;;
4424;SDS011;2225;53.568;13.266;2023-04-08T10:54:15;33.03;;;15.23;;
4424;SDS011;2225;53.568;13.266;2023-04-08T10:56:47;48.00;;;12.77;;
4424;SDS011;2225;53.568;13.266;2023-04-08T10:59:28;25.90;;;12.60;;
4424;SDS011;2225;53.568;13.266;2023-04-08T11:01:57;26.23;;;13.93;;
4424;SDS011;2225;53.568;13.266;2023-04-08T11:04:26;25.13;;;13.03;;
4424;SDS011;2225;53.568;13.266;2023-04-08T11:06:53;22.40;;;12.60;;
4424;SDS011;2225;53.568;13.266;2023-04-08T11:09:20;24.47;;;13.83;;
4424;SDS011;2225;53.568;13.266;2023-04-08T11:11:47;27.13;;;13.87;;
4424;SDS011;2225;53.568;13.266;2023-04-08T11:14:14;26.80;;;13.50;;
4424;SDS011;2225;53.568;13.266;2023-04-08T11:16:44;22.40;;;11.80;;
4424;SDS011;2225;53.568;13.266;2023-04-08T11:19:11;22.47;;;11.67;;
4424;SDS011;2225;53.568;13.266;2023-04-08T11:21:39;25.33;;;12.77;;
4424;SDS011;2225;53.568;13.266;2023-04-08T11:24:09;45.57;;;13.27;;
4424;SDS011;2225;53.568;13.266;2023-04-08T11:26:38;23.80;;;12.30;;
4424;SDS011;2225;53.568;13.266;2023-04-08T11:29:05;24.50;;;12.07;;
4424;SDS011;2225;53.568;13.266;2023-04-08T11:31:39;26.53;;;11.77;;
4424;SDS011;2225;53.568;13.266;2023-04-08T11:34:08;22.43;;;11.60;;
4424;SDS011;2225;53.568;13.266;2023-04-08T11:36:35;20.37;;;11.20;;
4424;SDS011;2225;53.568;13.266;2023-04-08T11:39:05;22.80;;;12.50;;
4424;SDS011;2225;53.568;13.266;2023-04-08T11:41:38;20.80;;;11.27;;
4424;SDS011;2225;53.568;13.266;2023-04-08T11:44:08;21.30;;;11.93;;
4424;SDS011;2225;53.568;13.266;2023-04-08T11:46:35;27.57;;;13.00;;
4424;SDS011;2225;53.568;13.266;2023-04-08T11:49:06;25.63;;;13.47;;
4424;SDS011;2225;53.568;13.266;2023-04-08T11:51:52;25.80;;;13.00;;
4424;SDS011;2225;53.568;13.266;2023-04-08T11:54:27;23.23;;;13.27;;
4424;SDS011;2225;53.568;13.266;2023-04-08T11:56:57;24.00;;;13.97;;
4424;SDS011;2225;53.568;13.266;2023-04-08T11:59:25;26.13;;;13.90;;
4424;SDS011;2225;53.568;13.266;2023-04-08T12:01:54;20.00;;;11.80;;
4424;SDS011;2225;53.568;13.266;2023-04-08T12:04:21;26.70;;;14.43;;
4424;SDS011;2225;53.568;13.266;2023-04-08T12:06:48;28.03;;;13.03;;
4424;SDS011;2225;53.568;13.266;2023-04-08T12:09:15;37.13;;;14.73;;
4424;SDS011;2225;53.568;13.266;2023-04-08T12:11:42;29.33;;;16.03;;
4424;SDS011;2225;53.568;13.266;2023-04-08T12:14:09;25.93;;;14.07;;
4424;SDS011;2225;53.568;13.266;2023-04-08T12:16:36;27.70;;;14.40;;
4424;SDS011;2225;53.568;13.266;2023-04-08T12:19:03;33.43;;;16.07;;
4424;SDS011;2225;53.568;13.266;2023-04-08T12:21:30;35.20;;;15.60;;
4424;SDS011;2225;53.568;13.266;2023-04-08T12:23:59;31.17;;;15.20;;
4424;SDS011;2225;53.568;13.266;2023-04-08T12:26:26;31.13;;;15.70;;
4424;SDS011;2225;53.568;13.266;2023-04-08T12:28:53;33.93;;;14.90;;
4424;SDS011;2225;53.568;13.266;2023-04-08T12:31:20;35.40;;;17.53;;
4424;SDS011;2225;53.568;13.266;2023-04-08T12:33:48;32.27;;;16.70;;
4424;SDS011;2225;53.568;13.266;2023-04-08T12:36:15;32.57;;;16.80;;
4424;SDS011;2225;53.568;13.266;2023-04-08T12:38:42;41.97;;;17.00;;
4424;SDS011;2225;53.568;13.266;2023-04-08T12:41:09;35.70;;;17.00;;
4424;SDS011;2225;53.568;13.266;2023-04-08T12:43:36;38.30;;;16.60;;
4424;SDS011;2225;53.568;13.266;2023-04-08T12:46:04;34.50;;;17.33;;
4424;SDS011;2225;53.568;13.266;2023-04-08T12:48:31;43.43;;;17.20;;
4424;SDS011;2225;53.568;13.266;2023-04-08T12:50:58;34.37;;;16.57;;
4424;SDS011;2225;53.568;13.266;2023-04-08T12:53:25;37.13;;;18.17;;
4424;SDS011;2225;53.568;13.266;2023-04-08T12:55:52;37.17;;;16.77;;
4424;SDS011;2225;53.568;13.266;2023-04-08T12:58:23;44.53;;;17.47;;
4424;SDS011;2225;53.568;13.266;2023-04-08T13:00:50;45.77;;;17.40;;
4424;SDS011;2225;53.568;13.266;2023-04-08T13:03:17;58.03;;;20.00;;
4424;SDS011;2225;53.568;13.266;2023-04-08T13:05:44;46.23;;;19.90;;
4424;SDS011;2225;53.568;13.266;2023-04-08T13:08:12;41.70;;;21.40;;
4424;SDS011;2225;53.568;13.266;2023-04-08T13:10:39;55.70;;;20.97;;
4424;SDS011;2225;53.568;13.266;2023-04-08T13:13:07;43.67;;;19.20;;
4424;SDS011;2225;53.568;13.266;2023-04-08T13:15:34;42.53;;;19.13;;
4424;SDS011;2225;53.568;13.266;2023-04-08T13:18:02;39.97;;;18.03;;
4424;SDS011;2225;53.568;13.266;2023-04-08T13:20:29;39.90;;;18.57;;
4424;SDS011;2225;53.568;13.266;2023-04-08T13:22:56;39.50;;;17.33;;
4424;SDS011;2225;53.568;13.266;2023-04-08T13:25:23;40.73;;;18.93;;
4424;SDS011;2225;53.568;13.266;2023-04-08T13:27:50;38.10;;;18.17;;
4424;SDS011;2225;53.568;13.266;2023-04-08T13:30:17;38.23;;;17.80;;
4424;SDS011;2225;53.568;13.266;2023-04-08T13:32:44;43.50;;;18.97;;
4424;SDS011;2225;53.568;13.266;2023-04-08T13:35:11;44.73;;;22.37;;
4424;SDS011;2225;53.568;13.266;2023-04-08T13:37:38;45.20;;;21.27;;
4424;SDS011;2225;53.568;13.266;2023-04-08T13:40:05;45.50;;;18.73;;
4424;SDS011;2225;53.568;13.266;2023-04-08T13:42:34;50.23;;;18.00;;
4424;SDS011;2225;53.568;13.266;2023-04-08T13:45:00;44.87;;;20.27;;
4424;SDS011;2225;53.568;13.266;2023-04-08T13:47:27;51.43;;;19.20;;
4424;SDS011;2225;53.568;13.266;2023-04-08T13:49:54;43.00;;;18.70;;
4424;SDS011;2225;53.568;13.266;2023-04-08T13:52:21;37.53;;;17.93;;
4424;SDS011;2225;53.568;13.266;2023-04-08T13:54:48;36.00;;;17.93;;
4424;SDS011;2225;53.568;13.266;2023-04-08T13:57:15;43.57;;;19.20;;
4424;SDS011;2225;53.568;13.266;2023-04-08T13:59:42;41.23;;;17.73;;
4424;SDS011;2225;53.568;13.266;2023-04-08T14:02:10;35.07;;;18.13;;
4424;SDS011;2225;53.568;13.266;2023-04-08T14:04:38;44.77;;;17.40;;
4424;SDS011;2225;53.568;13.266;2023-04-08T14:07:05;47.57;;;18.20;;
4424;SDS011;2225;53.568;13.266;2023-04-08T14:09:32;47.27;;;19.07;;
4424;SDS011;2225;53.568;13.266;2023-04-08T14:11:59;42.90;;;18.50;;
4424;SDS011;2225;53.568;13.266;2023-04-08T14:14:26;40.00;;;17.63;;
4424;SDS011;2225;53.568;13.266;2023-04-08T14:16:53;44.13;;;18.40;;
4424;SDS011;2225;53.568;13.266;2023-04-08T14:19:20;38.97;;;17.90;;
4424;SDS011;2225;53.568;13.266;2023-04-08T14:21:47;39.37;;;17.90;;
4424;SDS011;2225;53.568;13.266;2023-04-08T14:24:14;38.27;;;16.80;;
4424;SDS011;2225;53.568;13.266;2023-04-08T14:26:41;37.40;;;16.60;;
4424;SDS011;2225;53.568;13.266;2023-04-08T14:29:08;42.40;;;18.47;;
4424;SDS011;2225;53.568;13.266;2023-04-08T14:31:35;44.87;;;17.53;;
4424;SDS011;2225;53.568;13.266;2023-04-08T14:34:02;39.13;;;15.87;;
4424;SDS011;2225;53.568;13.266;2023-04-08T14:36:29;44.10;;;17.87;;
4424;SDS011;2225;53.568;13.266;2023-04-08T14:38:56;41.00;;;17.67;;
4424;SDS011;2225;53.568;13.266;2023-04-08T14:41:24;36.33;;;16.90;;
4424;SDS011;2225;53.568;13.266;2023-04-08T14:43:52;46.00;;;17.10;;
4424;SDS011;2225;53.568;13.266;2023-04-08T14:46:19;37.17;;;18.57;;
4424;SDS011;2225;53.568;13.266;2023-04-08T14:48:47;59.87;;;20.80;;
4424;SDS011;2225;53.568;13.266;2023-04-08T14:51:14;53.17;;;19.60;;
4424;SDS011;2225;53.568;13.266;2023-04-08T14:53:41;42.23;;;19.60;;
4424;SDS011;2225;53.568;13.266;2023-04-08T14:56:08;39.40;;;17.57;;
4424;SDS011;2225;53.568;13.266;2023-04-08T14:58:35;40.83;;;17.30;;
4424;SDS011;2225;53.568;13.266;2023-04-08T15:01:02;40.50;;;18.70;;